Airfield :
LOGIN :

Register | Disclaimer

   EN    FR    IT 

 










Legend :    VFR   Marginal VFR   IFR   Intensive IFR   Very Intensive IFR
Visi :
Ceiling :
>= 8 km
>= 3000ft
5 to 8 km
1000 to 3000 ft
1500m to 5 km
500 to 1000 ft
800 to 1500m
200 to 500 ft
< 800m
< 200 ft
Symbols :   Thunderstorms  Fog  Heavy snow  Heavy precipitations  Wind > 20 kt
SIGMETs :     Misc.  Thunderstorms  Icing  Turbulence  Mountain Waves  Volcanic Ashes






- Airport Elevation : 141 ft
- IATA code : SKS


EKSP - Srydstrup Vojens

CURRENT METAR :
  • 300151Z 32007KT 290V350 9999 BKN013 10/08 Q1025

EXPIRED METARs :
  • 300120Z 33007KT 310V020 9999 BKN012 10/08 Q1025
  • 300050Z 32009KT 9999 BKN011 10/08 Q1025
  • 300020Z 32006KT 290V350 9999 BKN011 10/07 Q1025
  • 292350Z 32005KT 290V010 9999 BKN011 09/07 Q1024
  • 292320Z 32008KT 9999 BKN012 09/07 Q1024
  • 292308Z 32008KT 9999 BKN012 BKN250 09/06 Q1024
  • 292250Z 31008KT CAVOK 08/06 Q1024 RMK BKN250

TAF TAF EKSP
Valid from the 30 at 00:00 until the 31 at 00:00 UTC


292302Z 3000/3024 31008KT 9999 SCT200
BECMG 3000/3002 BKN012
BECMG 3002/3005 35005KT SCT015
BECMG 3006/3009 06008KT
BECMG 3020/3021 VRB03KT



MET'MAP, your aeronautical weather chart ! - Copyright ORBIFLY December 2007 - Disclaimer

ORBIFLY MET'MAP TEAM :

Programming & Development : Alexandra Zaïnal
Original concept : Baudouin d'Aumeries
Technical & hardware support : Manuel Goepfert
Assistance : Marc-Olivier Méhu




SOURCES & CREDITS :

   NOAA